sensor_id;sensor_type;location;lat;lon;timestamp;P1;durP1;ratioP1;P2;durP2;ratioP2
38264;SDS011;24062;47.480;8.768;2024-01-07T00:02:04;2.10;;;0.70;;
38264;SDS011;24062;47.480;8.768;2024-01-07T00:04:32;2.20;;;1.10;;
38264;SDS011;24062;47.480;8.768;2024-01-07T00:07:00;1.60;;;0.70;;
38264;SDS011;24062;47.480;8.768;2024-01-07T00:09:27;2.47;;;0.90;;
38264;SDS011;24062;47.480;8.768;2024-01-07T00:11:53;1.70;;;0.60;;
38264;SDS011;24062;47.480;8.768;2024-01-07T00:14:20;1.40;;;0.60;;
38264;SDS011;24062;47.480;8.768;2024-01-07T00:16:47;1.70;;;0.80;;
38264;SDS011;24062;47.480;8.768;2024-01-07T00:19:14;1.47;;;0.60;;
38264;SDS011;24062;47.480;8.768;2024-01-07T00:21:42;1.50;;;0.67;;
38264;SDS011;24062;47.480;8.768;2024-01-07T00:24:09;1.80;;;0.60;;
38264;SDS011;24062;47.480;8.768;2024-01-07T00:26:36;3.70;;;0.77;;
38264;SDS011;24062;47.480;8.768;2024-01-07T00:29:03;1.60;;;0.70;;
38264;SDS011;24062;47.480;8.768;2024-01-07T00:31:30;1.40;;;0.60;;
38264;SDS011;24062;47.480;8.768;2024-01-07T00:33:57;1.67;;;0.63;;
38264;SDS011;24062;47.480;8.768;2024-01-07T00:36:23;1.60;;;0.50;;
38264;SDS011;24062;47.480;8.768;2024-01-07T00:38:52;2.23;;;0.60;;
38264;SDS011;24062;47.480;8.768;2024-01-07T00:41:18;1.30;;;0.50;;
38264;SDS011;24062;47.480;8.768;2024-01-07T00:43:45;1.67;;;0.60;;
38264;SDS011;24062;47.480;8.768;2024-01-07T00:46:12;1.83;;;0.50;;
38264;SDS011;24062;47.480;8.768;2024-01-07T00:48:39;2.23;;;0.60;;
38264;SDS011;24062;47.480;8.768;2024-01-07T00:51:06;1.90;;;0.70;;
38264;SDS011;24062;47.480;8.768;2024-01-07T00:53:33;1.40;;;0.60;;
38264;SDS011;24062;47.480;8.768;2024-01-07T00:56:01;2.07;;;0.70;;
38264;SDS011;24062;47.480;8.768;2024-01-07T00:58:28;1.30;;;0.60;;
38264;SDS011;24062;47.480;8.768;2024-01-07T01:00:55;1.40;;;0.60;;
38264;SDS011;24062;47.480;8.768;2024-01-07T01:03:22;1.80;;;0.50;;
38264;SDS011;24062;47.480;8.768;2024-01-07T01:05:48;6.33;;;0.70;;
38264;SDS011;24062;47.480;8.768;2024-01-07T01:08:15;1.80;;;0.63;;
38264;SDS011;24062;47.480;8.768;2024-01-07T01:10:42;1.40;;;0.70;;
38264;SDS011;24062;47.480;8.768;2024-01-07T01:13:10;1.40;;;0.67;;
38264;SDS011;24062;47.480;8.768;2024-01-07T01:15:37;2.67;;;0.60;;
38264;SDS011;24062;47.480;8.768;2024-01-07T01:18:04;1.50;;;0.70;;
38264;SDS011;24062;47.480;8.768;2024-01-07T01:20:31;1.20;;;0.53;;
38264;SDS011;24062;47.480;8.768;2024-01-07T01:22:58;1.20;;;0.50;;
38264;SDS011;24062;47.480;8.768;2024-01-07T01:25:25;1.40;;;0.70;;
38264;SDS011;24062;47.480;8.768;2024-01-07T01:27:52;1.20;;;0.50;;
38264;SDS011;24062;47.480;8.768;2024-01-07T01:30:20;1.90;;;0.60;;
38264;SDS011;24062;47.480;8.768;2024-01-07T01:32:47;1.80;;;0.53;;
38264;SDS011;24062;47.480;8.768;2024-01-07T01:35:14;1.30;;;0.50;;
38264;SDS011;24062;47.480;8.768;2024-01-07T01:37:41;1.70;;;0.70;;
38264;SDS011;24062;47.480;8.768;2024-01-07T01:40:08;1.63;;;0.60;;
38264;SDS011;24062;47.480;8.768;2024-01-07T01:42:35;1.77;;;0.60;;
38264;SDS011;24062;47.480;8.768;2024-01-07T01:45:02;1.53;;;0.60;;
38264;SDS011;24062;47.480;8.768;2024-01-07T01:47:31;1.57;;;0.60;;
38264;SDS011;24062;47.480;8.768;2024-01-07T01:49:58;1.40;;;0.60;;
38264;SDS011;24062;47.480;8.768;2024-01-07T01:52:25;1.37;;;0.60;;
38264;SDS011;24062;47.480;8.768;2024-01-07T01:54:52;1.17;;;0.50;;
38264;SDS011;24062;47.480;8.768;2024-01-07T01:57:20;1.27;;;0.57;;
38264;SDS011;24062;47.480;8.768;2024-01-07T01:59:48;1.40;;;0.60;;
38264;SDS011;24062;47.480;8.768;2024-01-07T02:02:15;1.57;;;0.60;;
38264;SDS011;24062;47.480;8.768;2024-01-07T02:04:43;1.30;;;0.50;;
38264;SDS011;24062;47.480;8.768;2024-01-07T02:07:10;1.30;;;0.70;;
38264;SDS011;24062;47.480;8.768;2024-01-07T02:09:37;1.20;;;0.50;;
38264;SDS011;24062;47.480;8.768;2024-01-07T02:12:05;1.10;;;0.40;;
38264;SDS011;24062;47.480;8.768;2024-01-07T02:14:36;1.80;;;0.50;;
38264;SDS011;24062;47.480;8.768;2024-01-07T02:17:03;1.30;;;0.60;;
38264;SDS011;24062;47.480;8.768;2024-01-07T02:19:30;1.93;;;0.77;;
38264;SDS011;24062;47.480;8.768;2024-01-07T02:21:59;1.80;;;0.60;;
38264;SDS011;24062;47.480;8.768;2024-01-07T02:24:27;1.93;;;0.77;;
38264;SDS011;24062;47.480;8.768;2024-01-07T02:26:55;1.20;;;0.50;;
38264;SDS011;24062;47.480;8.768;2024-01-07T02:29:22;1.60;;;0.60;;
38264;SDS011;24062;47.480;8.768;2024-01-07T02:31:49;1.50;;;0.50;;
38264;SDS011;24062;47.480;8.768;2024-01-07T02:34:15;1.40;;;0.50;;
38264;SDS011;24062;47.480;8.768;2024-01-07T02:36:42;1.80;;;0.60;;
38264;SDS011;24062;47.480;8.768;2024-01-07T02:39:09;1.27;;;0.50;;
38264;SDS011;24062;47.480;8.768;2024-01-07T02:41:37;1.43;;;0.57;;
38264;SDS011;24062;47.480;8.768;2024-01-07T02:44:04;1.30;;;0.50;;
38264;SDS011;24062;47.480;8.768;2024-01-07T02:46:31;1.30;;;0.50;;
38264;SDS011;24062;47.480;8.768;2024-01-07T02:48:58;1.40;;;0.50;;
38264;SDS011;24062;47.480;8.768;2024-01-07T02:51:25;1.33;;;0.53;;
38264;SDS011;24062;47.480;8.768;2024-01-07T02:53:51;1.30;;;0.50;;
38264;SDS011;24062;47.480;8.768;2024-01-07T02:56:18;2.20;;;0.50;;
38264;SDS011;24062;47.480;8.768;2024-01-07T02:58:47;1.37;;;0.50;;
38264;SDS011;24062;47.480;8.768;2024-01-07T03:01:13;2.23;;;0.60;;
38264;SDS011;24062;47.480;8.768;2024-01-07T03:03:40;1.10;;;0.40;;
38264;SDS011;24062;47.480;8.768;2024-01-07T03:06:07;1.63;;;0.60;;
38264;SDS011;24062;47.480;8.768;2024-01-07T03:08:34;1.20;;;0.50;;
38264;SDS011;24062;47.480;8.768;2024-01-07T03:11:04;1.23;;;0.50;;
38264;SDS011;24062;47.480;8.768;2024-01-07T03:13:31;1.50;;;0.70;;
38264;SDS011;24062;47.480;8.768;2024-01-07T03:16:00;1.50;;;0.50;;
38264;SDS011;24062;47.480;8.768;2024-01-07T03:18:27;1.20;;;0.50;;
38264;SDS011;24062;47.480;8.768;2024-01-07T03:20:54;1.60;;;0.70;;
38264;SDS011;24062;47.480;8.768;2024-01-07T03:23:21;1.63;;;0.50;;
38264;SDS011;24062;47.480;8.768;2024-01-07T03:25:48;1.50;;;0.60;;
38264;SDS011;24062;47.480;8.768;2024-01-07T03:28:14;1.60;;;0.40;;
38264;SDS011;24062;47.480;8.768;2024-01-07T03:30:41;1.13;;;0.50;;
38264;SDS011;24062;47.480;8.768;2024-01-07T03:33:10;1.50;;;0.50;;
38264;SDS011;24062;47.480;8.768;2024-01-07T03:35:37;1.13;;;0.40;;
38264;SDS011;24062;47.480;8.768;2024-01-07T03:38:04;1.23;;;0.60;;
38264;SDS011;24062;47.480;8.768;2024-01-07T03:40:30;1.30;;;0.60;;
38264;SDS011;24062;47.480;8.768;2024-01-07T03:42:57;1.20;;;0.50;;
38264;SDS011;24062;47.480;8.768;2024-01-07T03:45:24;1.27;;;0.70;;
38264;SDS011;24062;47.480;8.768;2024-01-07T03:47:51;1.20;;;0.50;;
38264;SDS011;24062;47.480;8.768;2024-01-07T03:50:20;1.37;;;0.47;;
38264;SDS011;24062;47.480;8.768;2024-01-07T03:52:46;1.30;;;0.70;;
38264;SDS011;24062;47.480;8.768;2024-01-07T03:55:13;1.27;;;0.53;;
38264;SDS011;24062;47.480;8.768;2024-01-07T03:57:40;1.43;;;0.53;;
38264;SDS011;24062;47.480;8.768;2024-01-07T04:00:07;1.20;;;0.50;;
38264;SDS011;24062;47.480;8.768;2024-01-07T04:02:35;1.33;;;0.50;;
38264;SDS011;24062;47.480;8.768;2024-01-07T04:05:03;1.20;;;0.50;;
38264;SDS011;24062;47.480;8.768;2024-01-07T04:07:31;1.30;;;0.60;;
38264;SDS011;24062;47.480;8.768;2024-01-07T04:09:58;1.40;;;0.50;;
38264;SDS011;24062;47.480;8.768;2024-01-07T04:12:25;1.10;;;0.40;;
38264;SDS011;24062;47.480;8.768;2024-01-07T04:14:52;1.40;;;0.50;;
38264;SDS011;24062;47.480;8.768;2024-01-07T04:17:19;1.90;;;0.70;;
38264;SDS011;24062;47.480;8.768;2024-01-07T04:19:46;1.10;;;0.40;;
38264;SDS011;24062;47.480;8.768;2024-01-07T04:22:12;1.30;;;0.50;;
38264;SDS011;24062;47.480;8.768;2024-01-07T04:24:41;1.30;;;0.60;;
38264;SDS011;24062;47.480;8.768;2024-01-07T04:27:08;1.10;;;0.50;;
38264;SDS011;24062;47.480;8.768;2024-01-07T04:29:35;1.10;;;0.40;;
38264;SDS011;24062;47.480;8.768;2024-01-07T04:32:02;1.60;;;0.60;;
38264;SDS011;24062;47.480;8.768;2024-01-07T04:34:29;1.20;;;0.50;;
38264;SDS011;24062;47.480;8.768;2024-01-07T04:36:56;1.20;;;0.47;;
38264;SDS011;24062;47.480;8.768;2024-01-07T04:39:23;1.30;;;0.50;;
38264;SDS011;24062;47.480;8.768;2024-01-07T04:41:51;1.40;;;0.50;;
38264;SDS011;24062;47.480;8.768;2024-01-07T04:44:18;1.20;;;0.50;;
38264;SDS011;24062;47.480;8.768;2024-01-07T04:46:47;1.30;;;0.50;;
38264;SDS011;24062;47.480;8.768;2024-01-07T04:49:14;1.20;;;0.40;;
38264;SDS011;24062;47.480;8.768;2024-01-07T04:51:41;1.40;;;0.50;;
38264;SDS011;24062;47.480;8.768;2024-01-07T04:54:07;1.13;;;0.40;;
38264;SDS011;24062;47.480;8.768;2024-01-07T04:56:34;1.10;;;0.40;;
38264;SDS011;24062;47.480;8.768;2024-01-07T04:59:02;1.40;;;0.70;;
38264;SDS011;24062;47.480;8.768;2024-01-07T05:01:29;1.30;;;0.50;;
38264;SDS011;24062;47.480;8.768;2024-01-07T05:03:58;1.20;;;0.50;;
38264;SDS011;24062;47.480;8.768;2024-01-07T05:06:25;1.20;;;0.47;;
38264;SDS011;24062;47.480;8.768;2024-01-07T05:08:52;1.20;;;0.50;;
38264;SDS011;24062;47.480;8.768;2024-01-07T05:11:19;1.20;;;0.50;;
38264;SDS011;24062;47.480;8.768;2024-01-07T05:13:46;1.30;;;0.40;;
38264;SDS011;24062;47.480;8.768;2024-01-07T05:16:19;1.23;;;0.40;;
38264;SDS011;24062;47.480;8.768;2024-01-07T05:18:46;1.20;;;0.50;;
38264;SDS011;24062;47.480;8.768;2024-01-07T05:21:13;1.20;;;0.40;;
38264;SDS011;24062;47.480;8.768;2024-01-07T05:23:41;1.30;;;0.43;;
38264;SDS011;24062;47.480;8.768;2024-01-07T05:26:08;1.30;;;0.50;;
38264;SDS011;24062;47.480;8.768;2024-01-07T05:28:36;1.17;;;0.43;;
38264;SDS011;24062;47.480;8.768;2024-01-07T05:31:03;1.40;;;0.40;;
38264;SDS011;24062;47.480;8.768;2024-01-07T05:33:31;2.10;;;0.50;;
38264;SDS011;24062;47.480;8.768;2024-01-07T05:35:58;1.20;;;0.57;;
38264;SDS011;24062;47.480;8.768;2024-01-07T05:38:25;1.10;;;0.40;;
38264;SDS011;24062;47.480;8.768;2024-01-07T05:40:52;1.17;;;0.40;;
38264;SDS011;24062;47.480;8.768;2024-01-07T05:43:19;1.10;;;0.40;;
38264;SDS011;24062;47.480;8.768;2024-01-07T05:45:45;1.30;;;0.60;;
38264;SDS011;24062;47.480;8.768;2024-01-07T05:48:12;1.20;;;0.50;;
38264;SDS011;24062;47.480;8.768;2024-01-07T05:50:41;2.03;;;0.50;;
38264;SDS011;24062;47.480;8.768;2024-01-07T05:53:07;1.20;;;0.40;;
38264;SDS011;24062;47.480;8.768;2024-01-07T05:55:34;1.10;;;0.40;;
38264;SDS011;24062;47.480;8.768;2024-01-07T05:58:01;1.30;;;0.60;;
38264;SDS011;24062;47.480;8.768;2024-01-07T06:00:28;1.20;;;0.50;;
38264;SDS011;24062;47.480;8.768;2024-01-07T06:02:55;1.40;;;0.47;;
38264;SDS011;24062;47.480;8.768;2024-01-07T06:05:22;1.20;;;0.40;;
38264;SDS011;24062;47.480;8.768;2024-01-07T06:07:50;1.20;;;0.40;;
38264;SDS011;24062;47.480;8.768;2024-01-07T06:10:17;1.10;;;0.43;;
38264;SDS011;24062;47.480;8.768;2024-01-07T06:12:44;1.40;;;0.50;;
38264;SDS011;24062;47.480;8.768;2024-01-07T06:15:11;1.30;;;0.40;;
38264;SDS011;24062;47.480;8.768;2024-01-07T06:17:38;1.63;;;0.40;;
38264;SDS011;24062;47.480;8.768;2024-01-07T06:20:05;1.10;;;0.40;;
38264;SDS011;24062;47.480;8.768;2024-01-07T06:22:33;1.60;;;0.60;;
38264;SDS011;24062;47.480;8.768;2024-01-07T06:25:01;1.40;;;0.43;;
38264;SDS011;24062;47.480;8.768;2024-01-07T06:27:28;2.60;;;0.50;;
38264;SDS011;24062;47.480;8.768;2024-01-07T06:29:55;1.63;;;0.63;;
38264;SDS011;24062;47.480;8.768;2024-01-07T06:32:22;2.07;;;0.50;;
38264;SDS011;24062;47.480;8.768;2024-01-07T06:34:50;1.70;;;0.50;;
38264;SDS011;24062;47.480;8.768;2024-01-07T06:37:17;4.97;;;0.57;;
38264;SDS011;24062;47.480;8.768;2024-01-07T06:39:44;1.40;;;0.60;;
38264;SDS011;24062;47.480;8.768;2024-01-07T06:42:12;1.50;;;0.50;;
38264;SDS011;24062;47.480;8.768;2024-01-07T06:44:39;2.43;;;0.50;;
38264;SDS011;24062;47.480;8.768;2024-01-07T06:47:06;4.73;;;0.47;;
38264;SDS011;24062;47.480;8.768;2024-01-07T06:49:33;1.10;;;0.40;;
38264;SDS011;24062;47.480;8.768;2024-01-07T06:52:00;1.50;;;0.50;;
38264;SDS011;24062;47.480;8.768;2024-01-07T06:54:27;2.30;;;0.50;;
38264;SDS011;24062;47.480;8.768;2024-01-07T06:56:54;1.70;;;0.43;;
38264;SDS011;24062;47.480;8.768;2024-01-07T06:59:22;1.70;;;0.50;;
38264;SDS011;24062;47.480;8.768;2024-01-07T07:01:49;1.10;;;0.40;;
38264;SDS011;24062;47.480;8.768;2024-01-07T07:04:16;2.00;;;0.50;;
38264;SDS011;24062;47.480;8.768;2024-01-07T07:06:42;1.50;;;0.40;;
38264;SDS011;24062;47.480;8.768;2024-01-07T07:09:09;1.60;;;0.57;;
38264;SDS011;24062;47.480;8.768;2024-01-07T07:11:38;1.30;;;0.50;;
38264;SDS011;24062;47.480;8.768;2024-01-07T07:14:04;1.60;;;0.60;;
38264;SDS011;24062;47.480;8.768;2024-01-07T07:16:33;1.30;;;0.40;;
38264;SDS011;24062;47.480;8.768;2024-01-07T07:19:00;1.40;;;0.50;;
38264;SDS011;24062;47.480;8.768;2024-01-07T07:21:27;1.93;;;0.67;;
38264;SDS011;24062;47.480;8.768;2024-01-07T07:23:54;1.47;;;0.60;;
38264;SDS011;24062;47.480;8.768;2024-01-07T07:26:21;1.40;;;0.50;;
38264;SDS011;24062;47.480;8.768;2024-01-07T07:28:48;1.30;;;0.40;;
38264;SDS011;24062;47.480;8.768;2024-01-07T07:31:15;1.20;;;0.40;;
38264;SDS011;24062;47.480;8.768;2024-01-07T07:33:44;1.90;;;0.50;;
38264;SDS011;24062;47.480;8.768;2024-01-07T07:36:10;1.70;;;0.50;;
38264;SDS011;24062;47.480;8.768;2024-01-07T07:38:37;1.43;;;0.50;;
38264;SDS011;24062;47.480;8.768;2024-01-07T07:41:04;1.20;;;0.40;;
38264;SDS011;24062;47.480;8.768;2024-01-07T07:43:32;1.80;;;0.50;;
38264;SDS011;24062;47.480;8.768;2024-01-07T07:45:59;1.37;;;0.50;;
38264;SDS011;24062;47.480;8.768;2024-01-07T07:48:28;1.20;;;0.40;;
38264;SDS011;24062;47.480;8.768;2024-01-07T07:50:56;2.50;;;0.50;;
38264;SDS011;24062;47.480;8.768;2024-01-07T07:53:23;1.20;;;0.40;;
38264;SDS011;24062;47.480;8.768;2024-01-07T07:55:50;1.40;;;0.40;;
38264;SDS011;24062;47.480;8.768;2024-01-07T07:58:17;1.33;;;0.40;;
38264;SDS011;24062;47.480;8.768;2024-01-07T08:00:45;1.27;;;0.43;;
38264;SDS011;24062;47.480;8.768;2024-01-07T08:03:12;1.20;;;0.40;;
38264;SDS011;24062;47.480;8.768;2024-01-07T08:05:38;8.40;;;0.50;;
38264;SDS011;24062;47.480;8.768;2024-01-07T08:08:08;1.57;;;0.50;;
38264;SDS011;24062;47.480;8.768;2024-01-07T08:10:35;1.30;;;0.40;;
38264;SDS011;24062;47.480;8.768;2024-01-07T08:13:01;2.33;;;0.60;;
38264;SDS011;24062;47.480;8.768;2024-01-07T08:15:28;1.10;;;0.40;;
38264;SDS011;24062;47.480;8.768;2024-01-07T08:17:55;1.30;;;0.40;;
38264;SDS011;24062;47.480;8.768;2024-01-07T08:20:22;1.23;;;0.50;;
38264;SDS011;24062;47.480;8.768;2024-01-07T08:22:49;1.30;;;0.50;;
38264;SDS011;24062;47.480;8.768;2024-01-07T08:25:18;1.60;;;0.50;;
38264;SDS011;24062;47.480;8.768;2024-01-07T08:27:44;2.57;;;0.60;;
38264;SDS011;24062;47.480;8.768;2024-01-07T08:30:12;2.70;;;0.50;;
38264;SDS011;24062;47.480;8.768;2024-01-07T08:32:39;1.30;;;0.53;;
38264;SDS011;24062;47.480;8.768;2024-01-07T08:35:06;1.70;;;0.63;;
38264;SDS011;24062;47.480;8.768;2024-01-07T08:37:34;1.30;;;0.50;;
38264;SDS011;24062;47.480;8.768;2024-01-07T08:40:01;1.90;;;0.90;;
38264;SDS011;24062;47.480;8.768;2024-01-07T08:42:29;2.60;;;0.60;;
38264;SDS011;24062;47.480;8.768;2024-01-07T08:44:56;1.93;;;0.50;;
38264;SDS011;24062;47.480;8.768;2024-01-07T08:47:25;2.80;;;0.50;;
38264;SDS011;24062;47.480;8.768;2024-01-07T08:49:53;1.30;;;0.53;;
38264;SDS011;24062;47.480;8.768;2024-01-07T08:52:20;1.50;;;0.50;;
38264;SDS011;24062;47.480;8.768;2024-01-07T08:54:47;2.03;;;0.40;;
38264;SDS011;24062;47.480;8.768;2024-01-07T08:57:14;2.27;;;0.50;;
38264;SDS011;24062;47.480;8.768;2024-01-07T08:59:42;1.27;;;0.40;;
38264;SDS011;24062;47.480;8.768;2024-01-07T09:02:09;1.60;;;0.40;;
38264;SDS011;24062;47.480;8.768;2024-01-07T09:04:36;1.17;;;0.50;;
38264;SDS011;24062;47.480;8.768;2024-01-07T09:07:03;1.73;;;0.50;;
38264;SDS011;24062;47.480;8.768;2024-01-07T09:09:30;1.20;;;0.47;;
38264;SDS011;24062;47.480;8.768;2024-01-07T09:11:56;1.33;;;0.60;;
38264;SDS011;24062;47.480;8.768;2024-01-07T09:14:25;1.30;;;0.50;;
38264;SDS011;24062;47.480;8.768;2024-01-07T09:16:53;1.77;;;0.60;;
38264;SDS011;24062;47.480;8.768;2024-01-07T09:19:20;1.20;;;0.40;;
38264;SDS011;24062;47.480;8.768;2024-01-07T09:21:47;1.30;;;0.57;;
38264;SDS011;24062;47.480;8.768;2024-01-07T09:24:14;1.73;;;0.70;;
38264;SDS011;24062;47.480;8.768;2024-01-07T09:26:41;1.47;;;0.50;;
38264;SDS011;24062;47.480;8.768;2024-01-07T09:29:08;1.30;;;0.50;;
38264;SDS011;24062;47.480;8.768;2024-01-07T09:31:35;1.20;;;0.40;;
38264;SDS011;24062;47.480;8.768;2024-01-07T09:34:03;1.23;;;0.50;;
38264;SDS011;24062;47.480;8.768;2024-01-07T09:36:31;1.50;;;0.60;;
38264;SDS011;24062;47.480;8.768;2024-01-07T09:38:58;1.60;;;0.60;;
38264;SDS011;24062;47.480;8.768;2024-01-07T09:41:25;3.30;;;0.63;;
38264;SDS011;24062;47.480;8.768;2024-01-07T09:43:52;2.47;;;0.70;;
38264;SDS011;24062;47.480;8.768;2024-01-07T09:46:19;1.33;;;0.50;;
38264;SDS011;24062;47.480;8.768;2024-01-07T09:48:46;1.80;;;0.50;;
38264;SDS011;24062;47.480;8.768;2024-01-07T09:51:15;1.27;;;0.50;;
38264;SDS011;24062;47.480;8.768;2024-01-07T09:53:45;1.40;;;0.60;;
38264;SDS011;24062;47.480;8.768;2024-01-07T09:56:16;1.20;;;0.50;;
38264;SDS011;24062;47.480;8.768;2024-01-07T09:58:46;2.07;;;0.70;;
38264;SDS011;24062;47.480;8.768;2024-01-07T10:01:15;1.93;;;0.50;;
38264;SDS011;24062;47.480;8.768;2024-01-07T10:03:42;1.20;;;0.43;;
38264;SDS011;24062;47.480;8.768;2024-01-07T10:06:10;1.60;;;0.50;;
38264;SDS011;24062;47.480;8.768;2024-01-07T10:08:38;3.10;;;0.70;;
38264;SDS011;24062;47.480;8.768;2024-01-07T10:11:05;1.80;;;0.70;;
38264;SDS011;24062;47.480;8.768;2024-01-07T10:13:34;1.80;;;0.57;;
38264;SDS011;24062;47.480;8.768;2024-01-07T10:16:01;1.97;;;0.70;;
38264;SDS011;24062;47.480;8.768;2024-01-07T10:18:28;1.57;;;0.60;;
38264;SDS011;24062;47.480;8.768;2024-01-07T10:21:01;1.20;;;0.50;;
38264;SDS011;24062;47.480;8.768;2024-01-07T10:23:29;2.30;;;0.63;;
38264;SDS011;24062;47.480;8.768;2024-01-07T10:25:58;1.40;;;0.50;;
38264;SDS011;24062;47.480;8.768;2024-01-07T10:28:27;1.73;;;0.53;;
38264;SDS011;24062;47.480;8.768;2024-01-07T10:30:54;1.40;;;0.50;;
38264;SDS011;24062;47.480;8.768;2024-01-07T10:33:21;1.60;;;0.60;;
38264;SDS011;24062;47.480;8.768;2024-01-07T10:35:51;1.57;;;0.60;;
38264;SDS011;24062;47.480;8.768;2024-01-07T10:38:19;1.40;;;0.57;;
38264;SDS011;24062;47.480;8.768;2024-01-07T10:40:47;2.70;;;0.60;;
38264;SDS011;24062;47.480;8.768;2024-01-07T10:43:17;1.20;;;0.40;;
38264;SDS011;24062;47.480;8.768;2024-01-07T10:45:47;1.73;;;0.83;;
38264;SDS011;24062;47.480;8.768;2024-01-07T10:48:15;1.37;;;0.50;;
38264;SDS011;24062;47.480;8.768;2024-01-07T10:50:44;1.63;;;0.80;;
38264;SDS011;24062;47.480;8.768;2024-01-07T10:53:15;1.30;;;0.40;;
38264;SDS011;24062;47.480;8.768;2024-01-07T10:55:48;2.17;;;0.60;;
38264;SDS011;24062;47.480;8.768;2024-01-07T10:58:20;1.63;;;0.50;;
38264;SDS011;24062;47.480;8.768;2024-01-07T11:00:48;1.57;;;0.87;;
38264;SDS011;24062;47.480;8.768;2024-01-07T11:03:17;1.30;;;0.40;;
38264;SDS011;24062;47.480;8.768;2024-01-07T11:05:48;1.40;;;0.50;;
38264;SDS011;24062;47.480;8.768;2024-01-07T11:08:22;1.37;;;0.60;;
38264;SDS011;24062;47.480;8.768;2024-01-07T11:10:53;1.57;;;0.50;;
38264;SDS011;24062;47.480;8.768;2024-01-07T11:13:35;1.47;;;0.50;;
38264;SDS011;24062;47.480;8.768;2024-01-07T11:16:03;1.60;;;0.63;;
38264;SDS011;24062;47.480;8.768;2024-01-07T11:18:34;1.40;;;0.57;;
38264;SDS011;24062;47.480;8.768;2024-01-07T11:21:05;1.20;;;0.50;;
38264;SDS011;24062;47.480;8.768;2024-01-07T11:23:32;2.60;;;0.50;;
38264;SDS011;24062;47.480;8.768;2024-01-07T11:26:02;3.23;;;0.63;;
38264;SDS011;24062;47.480;8.768;2024-01-07T11:28:43;2.70;;;0.60;;
38264;SDS011;24062;47.480;8.768;2024-01-07T11:31:14;1.63;;;0.60;;
38264;SDS011;24062;47.480;8.768;2024-01-07T11:33:42;1.77;;;0.70;;
38264;SDS011;24062;47.480;8.768;2024-01-07T11:36:10;1.93;;;0.63;;
38264;SDS011;24062;47.480;8.768;2024-01-07T11:38:41;1.50;;;0.53;;
38264;SDS011;24062;47.480;8.768;2024-01-07T11:41:09;1.40;;;0.50;;
38264;SDS011;24062;47.480;8.768;2024-01-07T11:43:37;1.60;;;0.50;;
38264;SDS011;24062;47.480;8.768;2024-01-07T11:46:05;8.07;;;0.67;;
38264;SDS011;24062;47.480;8.768;2024-01-07T11:48:33;1.73;;;0.63;;
38264;SDS011;24062;47.480;8.768;2024-01-07T11:51:00;1.50;;;0.50;;
38264;SDS011;24062;47.480;8.768;2024-01-07T11:53:27;1.70;;;0.47;;
38264;SDS011;24062;47.480;8.768;2024-01-07T11:55:54;1.37;;;0.60;;
38264;SDS011;24062;47.480;8.768;2024-01-07T11:58:21;1.20;;;0.60;;
38264;SDS011;24062;47.480;8.768;2024-01-07T12:00:48;1.63;;;0.50;;
38264;SDS011;24062;47.480;8.768;2024-01-07T12:03:16;1.37;;;0.50;;
38264;SDS011;24062;47.480;8.768;2024-01-07T12:05:43;2.03;;;0.80;;
38264;SDS011;24062;47.480;8.768;2024-01-07T12:08:12;1.73;;;0.50;;
38264;SDS011;24062;47.480;8.768;2024-01-07T12:10:40;1.40;;;0.60;;
38264;SDS011;24062;47.480;8.768;2024-01-07T12:13:07;1.50;;;0.70;;
38264;SDS011;24062;47.480;8.768;2024-01-07T12:15:36;2.90;;;0.77;;
38264;SDS011;24062;47.480;8.768;2024-01-07T12:18:04;1.60;;;0.70;;
38264;SDS011;24062;47.480;8.768;2024-01-07T12:20:32;1.80;;;0.70;;
38264;SDS011;24062;47.480;8.768;2024-01-07T12:23:04;2.33;;;1.00;;
38264;SDS011;24062;47.480;8.768;2024-01-07T12:25:32;1.70;;;0.60;;
38264;SDS011;24062;47.480;8.768;2024-01-07T12:27:59;5.10;;;0.70;;
38264;SDS011;24062;47.480;8.768;2024-01-07T12:30:26;2.53;;;0.90;;
38264;SDS011;24062;47.480;8.768;2024-01-07T12:32:53;4.10;;;0.90;;
38264;SDS011;24062;47.480;8.768;2024-01-07T12:35:21;1.87;;;0.87;;
38264;SDS011;24062;47.480;8.768;2024-01-07T12:37:53;1.70;;;0.70;;
38264;SDS011;24062;47.480;8.768;2024-01-07T12:40:21;2.67;;;0.90;;
38264;SDS011;24062;47.480;8.768;2024-01-07T12:42:49;2.03;;;0.90;;
38264;SDS011;24062;47.480;8.768;2024-01-07T12:45:16;1.43;;;0.63;;
38264;SDS011;24062;47.480;8.768;2024-01-07T12:47:43;2.07;;;0.90;;
38264;SDS011;24062;47.480;8.768;2024-01-07T12:50:12;1.40;;;0.50;;
38264;SDS011;24062;47.480;8.768;2024-01-07T12:52:40;2.23;;;0.73;;
38264;SDS011;24062;47.480;8.768;2024-01-07T12:55:09;2.00;;;0.90;;
38264;SDS011;24062;47.480;8.768;2024-01-07T12:57:36;2.37;;;1.40;;
38264;SDS011;24062;47.480;8.768;2024-01-07T13:00:03;2.30;;;0.97;;
38264;SDS011;24062;47.480;8.768;2024-01-07T13:02:32;2.13;;;1.00;;
38264;SDS011;24062;47.480;8.768;2024-01-07T13:04:59;1.80;;;1.00;;
38264;SDS011;24062;47.480;8.768;2024-01-07T13:07:26;2.20;;;1.10;;
38264;SDS011;24062;47.480;8.768;2024-01-07T13:09:53;3.20;;;0.93;;
38264;SDS011;24062;47.480;8.768;2024-01-07T13:12:21;1.87;;;0.90;;
38264;SDS011;24062;47.480;8.768;2024-01-07T13:14:48;2.70;;;1.33;;
38264;SDS011;24062;47.480;8.768;2024-01-07T13:17:15;1.73;;;0.97;;
38264;SDS011;24062;47.480;8.768;2024-01-07T13:19:42;1.97;;;1.00;;
38264;SDS011;24062;47.480;8.768;2024-01-07T13:22:09;3.20;;;1.27;;
38264;SDS011;24062;47.480;8.768;2024-01-07T13:24:36;4.97;;;1.17;;
38264;SDS011;24062;47.480;8.768;2024-01-07T13:27:03;2.40;;;1.07;;
38264;SDS011;24062;47.480;8.768;2024-01-07T13:29:32;1.90;;;0.93;;
38264;SDS011;24062;47.480;8.768;2024-01-07T13:31:59;2.63;;;1.00;;
38264;SDS011;24062;47.480;8.768;2024-01-07T13:34:25;1.80;;;0.80;;
38264;SDS011;24062;47.480;8.768;2024-01-07T13:36:52;3.17;;;1.20;;
38264;SDS011;24062;47.480;8.768;2024-01-07T13:39:20;2.30;;;1.33;;
38264;SDS011;24062;47.480;8.768;2024-01-07T13:41:47;1.90;;;0.90;;
38264;SDS011;24062;47.480;8.768;2024-01-07T13:44:14;2.30;;;1.10;;
38264;SDS011;24062;47.480;8.768;2024-01-07T13:46:45;2.43;;;1.20;;
38264;SDS011;24062;47.480;8.768;2024-01-07T13:49:12;1.80;;;0.77;;
38264;SDS011;24062;47.480;8.768;2024-01-07T13:51:39;2.07;;;1.13;;
38264;SDS011;24062;47.480;8.768;2024-01-07T13:54:06;2.57;;;1.30;;
38264;SDS011;24062;47.480;8.768;2024-01-07T13:56:35;2.20;;;1.13;;
38264;SDS011;24062;47.480;8.768;2024-01-07T13:59:03;2.43;;;1.33;;
38264;SDS011;24062;47.480;8.768;2024-01-07T14:01:30;2.80;;;1.30;;
38264;SDS011;24062;47.480;8.768;2024-01-07T14:03:59;2.60;;;1.37;;
38264;SDS011;24062;47.480;8.768;2024-01-07T14:06:26;1.50;;;0.83;;
38264;SDS011;24062;47.480;8.768;2024-01-07T14:08:53;2.63;;;1.10;;
38264;SDS011;24062;47.480;8.768;2024-01-07T14:11:20;1.80;;;0.80;;
38264;SDS011;24062;47.480;8.768;2024-01-07T14:13:47;2.30;;;1.00;;
38264;SDS011;24062;47.480;8.768;2024-01-07T14:16:14;2.60;;;1.07;;
38264;SDS011;24062;47.480;8.768;2024-01-07T14:18:41;1.83;;;1.00;;
38264;SDS011;24062;47.480;8.768;2024-01-07T14:21:09;3.57;;;1.23;;
38264;SDS011;24062;47.480;8.768;2024-01-07T14:23:36;2.13;;;0.93;;
38264;SDS011;24062;47.480;8.768;2024-01-07T14:26:03;1.60;;;1.03;;
38264;SDS011;24062;47.480;8.768;2024-01-07T14:28:30;2.07;;;0.87;;
38264;SDS011;24062;47.480;8.768;2024-01-07T14:30:57;1.83;;;0.90;;
38264;SDS011;24062;47.480;8.768;2024-01-07T14:33:24;1.60;;;0.70;;
38264;SDS011;24062;47.480;8.768;2024-01-07T14:35:51;1.63;;;0.70;;
38264;SDS011;24062;47.480;8.768;2024-01-07T14:38:19;1.90;;;0.90;;
38264;SDS011;24062;47.480;8.768;2024-01-07T14:40:46;2.00;;;0.97;;
38264;SDS011;24062;47.480;8.768;2024-01-07T14:43:16;1.93;;;0.97;;
38264;SDS011;24062;47.480;8.768;2024-01-07T14:45:43;1.77;;;0.70;;
38264;SDS011;24062;47.480;8.768;2024-01-07T14:48:09;2.30;;;0.93;;
38264;SDS011;24062;47.480;8.768;2024-01-07T14:50:36;2.13;;;0.90;;